Time;durP1;ratioP1;P1;durP2;ratioP2;P2;SDS_P1;SDS_P2;PMS_P1;PMS_P2;Temp;Humidity;BMP_temperature;BMP_pressure;BME280_temperature;BME280_humidity;BME280_pressure;Samples;Min_cycle;Max_cycle;Signal;HPM_P1;HPM_P2
2022/06/03 00:02:24;;;;;;;;;;;21.30;61.70;;;;;;5057576;28;19917;-77
2022/06/03 00:04:53;;;;;;;;;;;21.30;62.20;;;;;;5054217;28;19922;-77
2022/06/03 00:07:24;;;;;;;;;;;21.20;62.70;;;;;;5043973;28;19920;-77
2022/06/03 00:09:49;;;;;;;;;;;21.20;62.90;;;;;;5037044;28;19909;-77
2022/06/03 00:12:24;;;;;;;;;;;21.30;63.50;;;;;;5020796;28;20300;-77
2022/06/03 00:15:05;;;;;;;;;;;21.20;63.50;;;;;;5052661;28;19909;-77
2022/06/03 00:17:38;;;;;;;;;;;21.20;63.20;;;;;;5027276;28;19995;-76
2022/06/03 00:20:16;;;;;;;;;;;21.20;63.80;;;;;;5046696;28;19920;-76
2022/06/03 00:22:55;;;;;;;;;;;21.20;65.00;;;;;;5052121;28;19913;-77
2022/06/03 00:25:29;;;;;;;;;;;21.20;65.30;;;;;;5044613;28;19912;-77
2022/06/03 00:28:13;;;;;;;;;;;21.20;65.60;;;;;;5027607;28;19913;-77
2022/06/03 00:30:57;;;;;;;;;;;21.10;66.40;;;;;;5042137;28;20326;-77
2022/06/03 00:33:40;;;;;;;;;;;21.10;66.80;;;;;;5041596;28;19923;-76
2022/06/03 00:36:15;;;;;;;;;;;21.10;66.60;;;;;;5046780;28;19959;-77
2022/06/03 00:38:48;;;;;;;;;;;21.10;67.60;;;;;;5033716;28;19952;-77
2022/06/03 00:41:25;;;;;;;;;;;21.10;67.60;;;;;;5045884;28;19917;-76
2022/06/03 00:44:11;;;;;;;;;;;21.10;67.70;;;;;;5033298;28;19913;-77
2022/06/03 00:46:43;;;;;;;;;;;21.00;68.20;;;;;;5041831;28;20383;-76
2022/06/03 00:49:27;;;;;;;;;;;21.10;69.80;;;;;;5052636;28;19912;-77
2022/06/03 00:52:10;;;;;;;;;;;21.10;71.10;;;;;;5053051;28;19978;-77
2022/06/03 00:54:49;;;;;;;;;;;21.00;71.60;;;;;;5051956;28;20391;-77
2022/06/03 00:57:40;;;;;;;;;;;21.00;70.40;;;;;;5052277;28;20315;-76
2022/06/03 01:00:06;;;;;;;;;;;21.00;70.30;;;;;;5015287;28;20294;-76
2022/06/03 01:02:44;;;;;;;;;;;20.90;70.30;;;;;;5052067;28;19920;-76
2022/06/03 01:05:09;;;;;;;;;;;21.00;70.20;;;;;;5044669;28;19924;-76
2022/06/03 01:07:35;;;;;;;;;;;20.90;70.50;;;;;;5047205;28;20296;-77
2022/06/03 01:10:24;;;;;;;;;;;20.80;70.00;;;;;;5022839;28;19960;-77
2022/06/03 01:12:58;;;;;;;;;;;20.90;70.70;;;;;;5028589;28;20276;-77
2022/06/03 01:15:59;;;;;;;;;;;20.90;70.30;;;;;;5028086;28;19936;-77
2022/06/03 01:18:30;;;;;;;;;;;20.90;70.90;;;;;;4990305;28;19932;-77
2022/06/03 01:21:18;;;;;;;;;;;20.90;71.20;;;;;;5030421;28;19921;-77
2022/06/03 01:24:03;;;;;;;;;;;20.90;70.80;;;;;;5052150;28;19919;-77
2022/06/03 01:26:47;;;;;;;;;;;20.80;70.60;;;;;;5020447;28;19963;-77
2022/06/03 01:29:22;;;;;;;;;;;20.80;70.00;;;;;;5016901;28;19913;-76
2022/06/03 01:31:56;;;;;;;;;;;20.80;70.10;;;;;;5050229;28;19917;-76
2022/06/03 01:34:34;;;;;;;;;;;20.80;70.40;;;;;;5033170;28;19912;-76
2022/06/03 01:37:00;;;;;;;;;;;20.80;70.10;;;;;;5043935;28;19917;-76
2022/06/03 01:39:41;;;;;;;;;;;20.80;70.60;;;;;;5046753;28;19924;-78
2022/06/03 01:42:13;;;;;;;;;;;20.80;70.80;;;;;;5028267;28;19913;-78
2022/06/03 01:44:57;;;;;;;;;;;20.70;70.30;;;;;;5051031;28;20008;-77
2022/06/03 01:47:42;;;;;;;;;;;20.70;70.70;;;;;;5040674;28;19917;-77
2022/06/03 01:50:14;;;;;;;;;;;20.70;70.50;;;;;;5022314;28;20017;-77
2022/06/03 01:52:59;;;;;;;;;;;20.70;70.80;;;;;;5043952;28;19916;-77
2022/06/03 01:55:40;;;;;;;;;;;20.70;70.20;;;;;;5041035;28;19955;-77
2022/06/03 01:58:06;;;;;;;;;;;20.70;70.60;;;;;;5044726;28;20429;-76
2022/06/03 02:00:33;;;;;;;;;;;20.60;70.80;;;;;;5050760;28;20008;-77
2022/06/03 02:02:59;;;;;;;;;;;20.60;71.00;;;;;;5048337;28;19916;-77
2022/06/03 02:05:43;;;;;;;;;;;20.60;72.10;;;;;;5018630;28;19917;-77
2022/06/03 02:08:17;;;;;;;;;;;20.60;72.00;;;;;;5045912;28;19909;-78
2022/06/03 02:11:02;;;;;;;;;;;20.60;71.60;;;;;;5028111;28;19920;-78
2022/06/03 02:13:42;;;;;;;;;;;20.60;71.20;;;;;;5025163;28;19917;-78
2022/06/03 02:16:33;;;;;;;;;;;20.60;71.80;;;;;;5048908;28;19967;-78
2022/06/03 02:18:58;;;;;;;;;;;20.60;71.30;;;;;;5030412;28;19923;-78
2022/06/03 02:21:48;;;;;;;;;;;20.50;71.80;;;;;;5054038;28;19920;-77
2022/06/03 02:24:36;;;;;;;;;;;20.50;71.40;;;;;;5019669;28;20421;-76
2022/06/03 02:27:11;;;;;;;;;;;20.50;71.20;;;;;;5006807;28;19909;-76
2022/06/03 02:30:29;;;;;;;;;;;20.50;71.60;;;;;;5048754;28;20008;-77
2022/06/03 02:33:06;;;;;;;;;;;20.50;72.40;;;;;;5050002;28;19917;-76
2022/06/03 02:35:52;;;;;;;;;;;20.50;71.70;;;;;;5051111;28;19908;-76
2022/06/03 02:38:36;;;;;;;;;;;20.50;72.90;;;;;;5051554;28;20031;-76
2022/06/03 02:41:12;;;;;;;;;;;20.40;72.30;;;;;;5051225;28;19971;-75
2022/06/03 02:43:47;;;;;;;;;;;20.50;72.40;;;;;;5053883;28;19912;-77
2022/06/03 02:46:18;;;;;;;;;;;20.50;72.00;;;;;;5052156;28;19909;-76
2022/06/03 02:48:44;;;;;;;;;;;20.40;73.20;;;;;;5031706;28;19913;-77
2022/06/03 02:51:27;;;;;;;;;;;20.40;73.60;;;;;;5031858;28;19910;-77
2022/06/03 02:54:14;;;;;;;;;;;20.50;71.90;;;;;;5031845;28;19909;-77
2022/06/03 02:56:58;;;;;;;;;;;20.40;71.40;;;;;;5034860;28;20329;-77
2022/06/03 02:59:34;;;;;;;;;;;20.40;71.40;;;;;;5018887;28;20345;-77
2022/06/03 03:02:08;;;;;;;;;;;20.40;70.90;;;;;;5052731;28;20729;-77
2022/06/03 03:04:36;;;;;;;;;;;20.50;71.60;;;;;;5045509;28;19919;-77
2022/06/03 03:07:21;;;;;;;;;;;20.40;70.90;;;;;;5027127;28;19959;-77
2022/06/03 03:09:57;;;;;;;;;;;20.40;71.80;;;;;;5048950;28;19913;-77
2022/06/03 03:12:26;;;;;;;;;;;20.40;70.70;;;;;;5028841;28;19963;-77
2022/06/03 03:15:04;;;;;;;;;;;20.40;70.60;;;;;;5031393;28;19928;-77
2022/06/03 03:18:01;;;;;;;;;;;20.40;70.90;;;;;;5050544;28;19924;-77
2022/06/03 03:20:46;;;;;;;;;;;20.30;71.30;;;;;;5022425;28;19924;-77
2022/06/03 03:23:30;;;;;;;;;;;20.40;71.50;;;;;;5064093;28;19909;-76
2022/06/03 03:26:04;;;;;;;;;;;20.30;71.20;;;;;;5061483;28;19912;-78
2022/06/03 03:28:39;;;;;;;;;;;20.30;71.20;;;;;;5045094;28;19949;-76
2022/06/03 03:31:05;;;;;;;;;;;20.40;72.10;;;;;;5048321;28;19916;-77
2022/06/03 03:33:48;;;;;;;;;;;20.30;72.10;;;;;;5031340;28;19966;-77
2022/06/03 03:36:37;;;;;;;;;;;20.30;71.90;;;;;;5025347;28;19979;-77
2022/06/03 03:39:21;;;;;;;;;;;20.30;71.20;;;;;;5026454;28;20368;-77
2022/06/03 03:41:56;;;;;;;;;;;20.30;71.50;;;;;;5045950;28;19917;-77
2022/06/03 03:44:27;;;;;;;;;;;20.30;70.90;;;;;;5053700;28;19912;-77
2022/06/03 03:47:11;;;;;;;;;;;20.20;70.40;;;;;;5044577;28;19983;-78
2022/06/03 03:50:00;;;;;;;;;;;20.30;70.30;;;;;;5034910;28;19916;-78
2022/06/03 03:52:45;;;;;;;;;;;20.20;71.00;;;;;;5033198;28;19917;-78
2022/06/03 03:55:38;;;;;;;;;;;20.20;71.60;;;;;;5034120;28;19913;-78
2022/06/03 03:58:15;;;;;;;;;;;20.20;70.90;;;;;;5043599;28;19971;-78
2022/06/03 04:00:41;;;;;;;;;;;20.20;71.00;;;;;;5043220;28;19917;-78
2022/06/03 04:03:15;;;;;;;;;;;20.20;70.70;;;;;;5035116;28;19939;-78
2022/06/03 04:05:56;;;;;;;;;;;20.20;70.50;;;;;;5053033;28;19931;-78
2022/06/03 04:08:21;;;;;;;;;;;20.20;70.40;;;;;;5052537;28;19913;-78
2022/06/03 04:10:50;;;;;;;;;;;20.20;70.70;;;;;;5042569;28;20000;-78
2022/06/03 04:13:22;;;;;;;;;;;20.20;70.20;;;;;;5034027;28;19912;-78
2022/06/03 04:15:56;;;;;;;;;;;20.20;69.90;;;;;;5035868;28;19917;-78
2022/06/03 04:18:48;;;;;;;;;;;20.20;70.40;;;;;;5050932;28;19980;-78
2022/06/03 04:21:16;;;;;;;;;;;20.20;69.80;;;;;;5047275;28;19970;-78
2022/06/03 04:23:50;;;;;;;;;;;20.20;70.20;;;;;;5044948;28;19909;-78
2022/06/03 04:26:34;;;;;;;;;;;20.20;70.20;;;;;;5051649;28;19935;-78
2022/06/03 04:29:39;;;;;;;;;;;20.20;70.00;;;;;;5049032;28;19970;-78
2022/06/03 04:32:20;;;;;;;;;;;20.30;70.00;;;;;;5045681;28;20272;-77
2022/06/03 04:35:04;;;;;;;;;;;20.30;70.10;;;;;;5053696;28;19966;-77
2022/06/03 04:37:45;;;;;;;;;;;20.30;69.80;;;;;;5054586;28;19913;-77
2022/06/03 04:40:16;;;;;;;;;;;20.30;70.10;;;;;;5055185;28;19909;-77
2022/06/03 04:43:01;;;;;;;;;;;20.40;70.00;;;;;;5055118;28;20284;-77
2022/06/03 04:45:29;;;;;;;;;;;20.40;69.80;;;;;;5054941;28;19915;-77
2022/06/03 04:48:13;;;;;;;;;;;20.40;70.00;;;;;;5037687;28;20339;-78
2022/06/03 04:50:41;;;;;;;;;;;20.50;70.00;;;;;;5053973;28;19919;-77
2022/06/03 04:53:09;;;;;;;;;;;20.50;70.30;;;;;;5036545;28;19912;-78
2022/06/03 04:55:37;;;;;;;;;;;20.60;70.60;;;;;;5053564;28;20345;-77
2022/06/03 04:58:21;;;;;;;;;;;20.70;70.60;;;;;;5053646;28;19970;-76
2022/06/03 05:01:05;;;;;;;;;;;20.80;71.60;;;;;;5048703;28;19942;-77
2022/06/03 05:03:34;;;;;;;;;;;20.90;71.00;;;;;;5050573;28;19919;-77
2022/06/03 05:06:11;;;;;;;;;;;20.90;71.00;;;;;;5053056;28;19944;-77
2022/06/03 05:08:47;;;;;;;;;;;21.00;70.80;;;;;;5052413;28;19908;-76
2022/06/03 05:11:26;;;;;;;;;;;21.10;70.40;;;;;;5027009;28;19919;-76
2022/06/03 05:14:10;;;;;;;;;;;21.20;70.50;;;;;;5052825;28;19978;-75
2022/06/03 05:16:39;;;;;;;;;;;21.20;70.50;;;;;;5047893;28;19909;-77
2022/06/03 05:19:19;;;;;;;;;;;21.30;70.60;;;;;;5014068;28;19913;-77
2022/06/03 05:21:44;;;;;;;;;;;21.30;70.60;;;;;;5016398;28;19924;-77
2022/06/03 05:24:28;;;;;;;;;;;21.40;70.50;;;;;;5048595;28;20335;-77
2022/06/03 05:27:01;;;;;;;;;;;21.40;70.40;;;;;;5047860;28;20365;-78
2022/06/03 05:29:32;;;;;;;;;;;21.50;70.20;;;;;;5025438;28;19913;-77
2022/06/03 05:32:04;;;;;;;;;;;21.60;69.80;;;;;;5033700;28;19916;-77
2022/06/03 05:34:41;;;;;;;;;;;21.70;69.80;;;;;;5032931;28;19957;-78
2022/06/03 05:37:22;;;;;;;;;;;21.80;69.60;;;;;;5033950;28;20339;-76
2022/06/03 05:39:53;;;;;;;;;;;22.00;69.50;;;;;;5032978;28;20377;-77
2022/06/03 05:42:35;;;;;;;;;;;22.20;69.50;;;;;;5033657;28;19924;-77
2022/06/03 05:45:19;;;;;;;;;;;22.30;69.40;;;;;;5033064;28;20011;-77
2022/06/03 05:47:49;;;;;;;;;;;22.40;69.10;;;;;;5032817;28;19913;-75
2022/06/03 05:50:15;;;;;;;;;;;22.50;69.10;;;;;;5032903;28;19909;-77
2022/06/03 05:53:01;;;;;;;;;;;22.70;69.10;;;;;;5033885;28;19916;-77
2022/06/03 05:55:35;;;;;;;;;;;22.70;68.60;;;;;;5033770;28;19916;-77
2022/06/03 05:58:06;;;;;;;;;;;22.90;68.30;;;;;;5034221;28;20418;-77
2022/06/03 06:00:32;;;;;;;;;;;23.10;68.30;;;;;;5016190;28;20007;-78
2022/06/03 06:02:57;;;;;;;;;;;23.40;66.70;;;;;;5034902;28;19944;-78
2022/06/03 06:05:39;;;;;;;;;;;24.20;63.10;;;;;;5034314;28;19944;-78
2022/06/03 06:08:43;;;;;;;;;;;24.80;61.80;;;;;;5031657;28;19920;-76
2022/06/03 06:11:08;;;;;;;;;;;25.20;61.00;;;;;;4954161;28;19973;-75
2022/06/03 06:13:52;;;;;;;;;;;25.40;61.50;;;;;;4970342;28;20001;-75
2022/06/03 06:16:19;;;;;;;;;;;25.70;58.90;;;;;;5005940;28;19909;-75
2022/06/03 06:19:04;;;;;;;;;;;25.90;55.60;;;;;;5031162;28;19913;-74
2022/06/03 06:21:30;;;;;;;;;;;26.00;54.20;;;;;;5031384;28;19920;-74
2022/06/03 06:24:20;;;;;;;;;;;26.20;53.30;;;;;;5013611;28;19909;-76
2022/06/03 06:26:49;;;;;;;;;;;26.20;52.80;;;;;;5031475;28;19909;-75
2022/06/03 06:29:33;;;;;;;;;;;26.60;50.40;;;;;;5030987;28;19963;-75
2022/06/03 06:32:17;;;;;;;;;;;26.70;50.20;;;;;;5013658;28;19917;-75
2022/06/03 06:34:51;;;;;;;;;;;26.60;50.00;;;;;;5031113;28;19909;-75
2022/06/03 06:37:17;;;;;;;;;;;26.80;49.90;;;;;;5013593;28;19920;-73
2022/06/03 06:39:51;;;;;;;;;;;26.90;49.60;;;;;;5030831;28;19909;-74
2022/06/03 06:42:25;;;;;;;;;;;27.10;49.50;;;;;;5031059;28;19920;-75
2022/06/03 06:45:01;;;;;;;;;;;27.30;49.30;;;;;;5030830;28;19909;-75
2022/06/03 06:47:35;;;;;;;;;;;27.40;48.90;;;;;;5030986;28;19913;-75
2022/06/03 06:50:09;;;;;;;;;;;27.30;49.10;;;;;;5030728;28;20329;-75
2022/06/03 06:52:42;;;;;;;;;;;27.40;48.60;;;;;;5030900;28;19916;-76
2022/06/03 06:55:19;;;;;;;;;;;27.40;48.80;;;;;;5030656;28;19920;-75
2022/06/03 06:57:45;;;;;;;;;;;27.40;48.30;;;;;;5030828;28;20383;-76
2022/06/03 07:00:19;;;;;;;;;;;27.50;47.40;;;;;;5029641;28;20012;-76
2022/06/03 07:02:50;;;;;;;;;;;27.50;42.40;;;;;;5049105;28;19917;-77
2022/06/03 07:05:23;;;;;;;;;;;27.40;42.80;;;;;;5050159;28;19923;-77
2022/06/03 07:08:09;;;;;;;;;;;27.30;41.80;;;;;;5049055;28;19917;-76
2022/06/03 07:10:35;;;;;;;;;;;27.30;41.90;;;;;;5031370;28;20220;-77
2022/06/03 07:13:15;;;;;;;;;;;27.50;41.30;;;;;;5049769;28;19909;-77
2022/06/03 07:15:59;;;;;;;;;;;27.70;41.30;;;;;;5048650;28;20292;-77
2022/06/03 07:21:16;;;;;;;;;;;28.30;40.20;;;;;;5049986;28;19920;-77
2022/06/03 07:24:03;;;;;;;;;;;28.70;39.80;;;;;;5050544;28;19908;-77
2022/06/03 07:26:34;;;;;;;;;;;29.20;38.30;;;;;;5031378;28;19912;-78
2022/06/03 07:29:06;;;;;;;;;;;29.50;39.40;;;;;;5050781;28;19956;-78
2022/06/03 07:31:38;;;;;;;;;;;29.50;38.50;;;;;;5033402;28;19944;-78
2022/06/03 07:34:13;;;;;;;;;;;29.70;37.10;;;;;;5052454;28;20011;-80
2022/06/03 07:36:48;;;;;;;;;;;30.20;37.50;;;;;;5046558;28;19924;-80
2022/06/03 07:39:35;;;;;;;;;;;30.30;37.50;;;;;;5031448;28;19960;-78
2022/06/03 07:42:00;;;;;;;;;;;30.40;36.30;;;;;;5059822;28;20015;-77
2022/06/03 07:44:28;;;;;;;;;;;30.70;36.30;;;;;;5067851;28;19913;-76
2022/06/03 07:47:00;;;;;;;;;;;30.90;35.60;;;;;;5068283;28;19955;-78
2022/06/03 07:49:27;;;;;;;;;;;30.80;35.60;;;;;;5037209;28;20023;-77
2022/06/03 07:51:54;;;;;;;;;;;30.80;36.00;;;;;;5035769;28;19955;-78
2022/06/03 07:54:25;;;;;;;;;;;30.40;36.10;;;;;;5054234;28;19916;-78
2022/06/03 07:56:58;;;;;;;;;;;30.10;36.70;;;;;;5035555;28;20269;-77
2022/06/03 07:59:24;;;;;;;;;;;30.00;36.90;;;;;;5053874;28;19970;-79
2022/06/03 08:01:57;;;;;;;;;;;30.00;37.10;;;;;;5036442;28;19916;-78
2022/06/03 08:04:33;;;;;;;;;;;29.90;37.00;;;;;;5054461;28;19913;-78
2022/06/03 08:12:34;;;;;;;;;;;29.70;37.80;;;;;;5054549;28;20014;-78
2022/06/03 08:15:12;;;;;;;;;;;29.70;37.70;;;;;;5036587;28;20297;-78
2022/06/03 08:17:37;;;;;;;;;;;29.80;37.50;;;;;;5054245;28;19922;-78
2022/06/03 08:20:03;;;;;;;;;;;29.90;37.40;;;;;;5053925;28;19909;-78
2022/06/03 08:22:29;;;;;;;;;;;30.20;37.00;;;;;;5054225;28;19916;-79
2022/06/03 08:24:56;;;;;;;;;;;30.30;36.70;;;;;;5036215;28;20273;-78
2022/06/03 08:27:24;;;;;;;;;;;29.70;37.40;;;;;;5054926;28;19913;-77
2022/06/03 08:29:54;;;;;;;;;;;29.10;38.40;;;;;;5036292;28;19913;-77
2022/06/03 08:32:40;;;;;;;;;;;28.70;39.30;;;;;;5036325;28;19949;-77
2022/06/03 08:35:07;;;;;;;;;;;28.30;39.90;;;;;;5036189;28;19967;-77
2022/06/03 08:37:35;;;;;;;;;;;27.70;39.10;;;;;;5038196;28;19935;-78
2022/06/03 08:40:09;;;;;;;;;;;27.30;39.60;;;;;;5054690;28;19912;-77
2022/06/03 08:42:37;;;;;;;;;;;27.10;40.90;;;;;;5054027;28;19924;-77
2022/06/03 08:45:31;;;;;;;;;;;27.20;40.40;;;;;;5055073;28;19909;-78
2022/06/03 08:47:58;;;;;;;;;;;27.40;39.30;;;;;;5036014;28;19912;-76
2022/06/03 08:50:42;;;;;;;;;;;28.00;38.10;;;;;;5052684;28;19955;-76
2022/06/03 08:53:18;;;;;;;;;;;28.20;37.50;;;;;;5050045;28;20749;-77
2022/06/03 08:55:44;;;;;;;;;;;28.30;37.60;;;;;;5040625;28;19952;-78
2022/06/03 08:58:29;;;;;;;;;;;28.40;37.50;;;;;;5042964;28;19948;-78
2022/06/03 09:00:55;;;;;;;;;;;28.20;37.60;;;;;;5001518;28;19917;-77
2022/06/03 09:03:21;;;;;;;;;;;27.80;38.50;;;;;;5040956;28;19996;-77
2022/06/03 09:05:51;;;;;;;;;;;27.70;38.60;;;;;;5024379;28;19939;-77
2022/06/03 09:08:29;;;;;;;;;;;27.80;38.50;;;;;;5042515;28;20376;-77
2022/06/03 09:10:54;;;;;;;;;;;27.90;38.60;;;;;;5042731;28;19998;-77
2022/06/03 09:13:25;;;;;;;;;;;27.80;38.50;;;;;;5040672;28;19921;-78
2022/06/03 09:15:51;;;;;;;;;;;28.00;38.30;;;;;;5040448;28;19956;-78
2022/06/03 09:18:23;;;;;;;;;;;27.70;38.50;;;;;;5024925;28;19913;-77
2022/06/03 09:20:55;;;;;;;;;;;27.70;39.00;;;;;;5041463;28;19964;-79
2022/06/03 09:23:21;;;;;;;;;;;27.80;38.50;;;;;;5041123;28;19917;-78
2022/06/03 09:25:49;;;;;;;;;;;27.80;38.50;;;;;;5035690;28;19932;-77
2022/06/03 09:28:17;;;;;;;;;;;27.60;39.10;;;;;;5033717;28;20369;-79
2022/06/03 09:30:45;;;;;;;;;;;27.80;38.90;;;;;;5015294;28;19910;-77
2022/06/03 09:33:12;;;;;;;;;;;27.90;38.50;;;;;;5032180;28;19986;-77
2022/06/03 09:35:40;;;;;;;;;;;28.00;38.30;;;;;;5014112;28;20399;-76
2022/06/03 09:38:06;;;;;;;;;;;28.00;38.30;;;;;;5032021;28;19913;-76
2022/06/03 09:40:33;;;;;;;;;;;28.10;38.80;;;;;;5031442;28;19913;-76
2022/06/03 09:43:02;;;;;;;;;;;28.10;38.60;;;;;;5031838;28;20282;-76
2022/06/03 09:45:28;;;;;;;;;;;28.20;38.20;;;;;;5031629;28;19975;-77
2022/06/03 09:47:54;;;;;;;;;;;28.20;38.20;;;;;;5031795;28;20369;-76
2022/06/03 09:50:21;;;;;;;;;;;28.30;38.40;;;;;;5031289;28;19909;-76
2022/06/03 09:52:48;;;;;;;;;;;28.20;38.70;;;;;;5013886;28;20019;-76
2022/06/03 09:55:22;;;;;;;;;;;28.00;39.20;;;;;;5031378;28;19909;-76
2022/06/03 09:57:48;;;;;;;;;;;27.70;39.60;;;;;;5031504;28;19917;-76
2022/06/03 10:00:25;;;;;;;;;;;27.50;39.90;;;;;;5031167;28;19916;-76
2022/06/03 10:02:52;;;;;;;;;;;27.30;40.30;;;;;;5031563;28;19944;-76
2022/06/03 10:05:19;;;;;;;;;;;27.20;40.60;;;;;;5030779;28;19964;-76
2022/06/03 10:07:45;;;;;;;;;;;27.20;40.60;;;;;;5031724;28;19965;-77
2022/06/03 10:12:59;;;;;;;;;;;27.10;41.10;;;;;;5032137;28;19939;-76
2022/06/03 10:15:39;;;;;;;;;;;27.00;41.10;;;;;;5031317;28;19905;-76
2022/06/03 10:18:08;;;;;;;;;;;27.00;41.40;;;;;;5013707;28;20373;-76
2022/06/03 10:20:34;;;;;;;;;;;26.90;41.50;;;;;;5031013;28;20284;-75
2022/06/03 10:23:01;;;;;;;;;;;26.90;41.50;;;;;;5031438;28;19960;-76
2022/06/03 10:25:27;;;;;;;;;;;26.90;41.80;;;;;;5013338;28;19913;-76
2022/06/03 10:27:52;;;;;;;;;;;26.90;41.80;;;;;;5013466;28;19964;-76
2022/06/03 10:30:25;;;;;;;;;;;26.90;41.80;;;;;;5030883;28;20413;-75
2022/06/03 10:32:51;;;;;;;;;;;26.80;41.90;;;;;;5013358;28;19909;-76
2022/06/03 10:35:17;;;;;;;;;;;26.60;42.30;;;;;;5030942;28;19916;-76
2022/06/03 10:37:46;;;;;;;;;;;26.50;42.60;;;;;;5037841;28;20348;-76
2022/06/03 10:40:12;;;;;;;;;;;26.50;42.50;;;;;;5036392;28;19920;-76
2022/06/03 10:42:40;;;;;;;;;;;26.50;42.40;;;;;;5032737;28;19917;-77
2022/06/03 10:45:08;;;;;;;;;;;26.50;42.70;;;;;;5051914;28;19919;-76
2022/06/03 10:47:35;;;;;;;;;;;26.50;42.60;;;;;;5034172;28;19909;-76
2022/06/03 10:50:03;;;;;;;;;;;26.50;42.60;;;;;;5051740;28;19913;-76
2022/06/03 11:01:07;;;;;;;;;;;26.20;43.10;;;;;;5051077;28;20354;-76
2022/06/03 11:03:33;;;;;;;;;;;26.00;43.20;;;;;;5032760;28;20357;-79
2022/06/03 11:06:07;;;;;;;;;;;25.90;43.60;;;;;;5050574;28;19916;-77
2022/06/03 11:08:46;;;;;;;;;;;25.70;43.80;;;;;;5050746;28;19909;-78
2022/06/03 11:11:12;;;;;;;;;;;25.60;44.00;;;;;;5050713;28;20391;-78
2022/06/03 11:13:41;;;;;;;;;;;25.50;44.10;;;;;;5032987;28;19908;-78
2022/06/03 11:16:20;;;;;;;;;;;25.40;44.30;;;;;;5047262;28;19917;-78
2022/06/03 11:18:46;;;;;;;;;;;25.40;44.50;;;;;;5053128;28;20405;-77
2022/06/03 11:21:17;;;;;;;;;;;25.40;44.50;;;;;;5036881;28;19917;-77
2022/06/03 11:23:43;;;;;;;;;;;25.40;44.60;;;;;;5055004;28;19909;-78
2022/06/03 11:26:09;;;;;;;;;;;25.40;45.00;;;;;;5054596;28;20060;-78
2022/06/03 11:28:38;;;;;;;;;;;25.50;44.50;;;;;;5054379;28;19908;-78
2022/06/03 11:31:05;;;;;;;;;;;25.50;44.30;;;;;;5045812;28;19920;-78
2022/06/03 11:33:42;;;;;;;;;;;25.60;44.10;;;;;;5036550;28;19909;-78
2022/06/03 11:36:21;;;;;;;;;;;25.70;44.00;;;;;;5021354;28;19909;-78
2022/06/03 11:38:55;;;;;;;;;;;25.70;44.00;;;;;;5039248;28;20007;-77
2022/06/03 11:41:42;;;;;;;;;;;25.70;44.00;;;;;;5059118;28;19972;-78
2022/06/03 11:44:11;;;;;;;;;;;25.60;44.10;;;;;;5057444;28;19908;-78
2022/06/03 11:46:46;;;;;;;;;;;25.50;44.20;;;;;;5059402;28;19996;-78
2022/06/03 11:49:13;;;;;;;;;;;25.40;44.40;;;;;;5057812;28;20387;-78
2022/06/03 11:51:39;;;;;;;;;;;25.40;44.60;;;;;;5054626;28;19917;-77
2022/06/03 11:54:09;;;;;;;;;;;25.30;44.60;;;;;;5047565;28;19913;-77
2022/06/03 11:56:36;;;;;;;;;;;25.40;44.60;;;;;;5039113;28;20078;-77
2022/06/03 11:59:04;;;;;;;;;;;25.40;44.80;;;;;;5028557;28;20369;-77
2022/06/03 12:01:35;;;;;;;;;;;25.30;44.70;;;;;;5042311;28;19913;-78
2022/06/03 12:04:07;;;;;;;;;;;25.20;44.90;;;;;;5045852;28;19909;-78
2022/06/03 12:06:36;;;;;;;;;;;25.10;45.00;;;;;;5069987;28;19909;-76
2022/06/03 12:09:22;;;;;;;;;;;25.10;45.10;;;;;;5077330;28;19896;-76
2022/06/03 12:14:55;;;;;;;;;;;25.10;45.10;;;;;;5055447;28;19915;-78
2022/06/03 12:17:26;;;;;;;;;;;25.10;45.10;;;;;;5037584;28;20284;-78
2022/06/03 12:19:54;;;;;;;;;;;25.10;45.00;;;;;;5050818;28;19960;-76
2022/06/03 12:22:19;;;;;;;;;;;25.10;45.20;;;;;;5047316;28;19921;-78
2022/06/03 12:24:47;;;;;;;;;;;25.10;45.30;;;;;;5031945;28;20262;-76
2022/06/03 12:27:18;;;;;;;;;;;25.00;45.40;;;;;;5017388;28;19909;-77
2022/06/03 12:29:55;;;;;;;;;;;24.90;45.40;;;;;;5051264;28;19913;-76
2022/06/03 12:32:28;;;;;;;;;;;24.90;45.50;;;;;;5016162;28;19931;-77
2022/06/03 12:35:12;;;;;;;;;;;24.90;46.20;;;;;;5046527;28;19915;-77
2022/06/03 12:37:38;;;;;;;;;;;24.80;45.60;;;;;;5036273;28;20016;-78
2022/06/03 12:40:19;;;;;;;;;;;24.70;45.70;;;;;;5053366;28;20369;-78
2022/06/03 12:42:45;;;;;;;;;;;24.70;45.90;;;;;;5053834;28;20691;-77
2022/06/03 12:45:13;;;;;;;;;;;24.70;46.10;;;;;;5048922;28;19995;-77
2022/06/03 12:47:42;;;;;;;;;;;24.70;46.00;;;;;;5050551;28;19920;-77
2022/06/03 12:50:07;;;;;;;;;;;24.70;46.00;;;;;;5015802;28;20001;-77
2022/06/03 12:52:36;;;;;;;;;;;24.80;45.90;;;;;;5016467;28;20625;-77
2022/06/03 12:55:01;;;;;;;;;;;24.80;45.70;;;;;;5028777;28;19999;-78
2022/06/03 12:57:40;;;;;;;;;;;24.90;45.80;;;;;;5054682;28;20367;-78
2022/06/03 13:00:07;;;;;;;;;;;25.00;45.50;;;;;;5044252;28;19913;-78
2022/06/03 13:02:46;;;;;;;;;;;24.90;45.50;;;;;;5033505;28;20395;-77
2022/06/03 13:05:30;;;;;;;;;;;24.90;45.60;;;;;;5054792;28;19924;-77
2022/06/03 13:08:01;;;;;;;;;;;24.80;45.70;;;;;;5050531;28;19913;-78
2022/06/03 13:10:28;;;;;;;;;;;24.70;46.00;;;;;;5042797;28;19962;-77
2022/06/03 13:12:55;;;;;;;;;;;24.70;46.20;;;;;;5052364;28;20364;-79
2022/06/03 13:15:20;;;;;;;;;;;24.70;55.00;;;;;;5042323;28;19960;-81
2022/06/03 13:18:02;;;;;;;;;;;24.60;55.30;;;;;;5024535;28;19967;-79
2022/06/03 13:20:39;;;;;;;;;;;24.60;55.00;;;;;;5039909;28;19917;-79
2022/06/03 13:23:19;;;;;;;;;;;24.70;55.10;;;;;;5051905;28;19905;-79
2022/06/03 13:25:46;;;;;;;;;;;24.70;56.80;;;;;;5052046;28;20007;-82
2022/06/03 13:28:30;;;;;;;;;;;24.70;57.50;;;;;;5033340;28;19908;-81
2022/06/03 13:31:22;;;;;;;;;;;24.60;55.40;;;;;;5034338;28;19909;-80
2022/06/03 13:34:12;;;;;;;;;;;24.60;55.40;;;;;;5030996;28;19913;-81
2022/06/03 13:36:46;;;;;;;;;;;24.60;54.90;;;;;;5039354;28;20250;-83
2022/06/03 13:39:24;;;;;;;;;;;24.70;54.70;;;;;;5014399;28;19909;-82
2022/06/03 13:45:08;;;;;;;;;;;24.70;55.20;;;;;;5034098;28;19971;-82
2022/06/03 13:47:36;;;;;;;;;;;24.60;55.30;;;;;;5014688;28;19913;-82
2022/06/03 13:50:14;;;;;;;;;;;24.60;55.50;;;;;;5014880;28;19909;-80
2022/06/03 13:52:48;;;;;;;;;;;24.50;55.30;;;;;;5032816;28;20004;-80
2022/06/03 13:55:17;;;;;;;;;;;24.50;55.00;;;;;;5031458;28;20008;-80
2022/06/03 13:57:48;;;;;;;;;;;24.40;55.20;;;;;;5014015;28;20369;-79
2022/06/03 14:00:16;;;;;;;;;;;24.30;55.00;;;;;;5031557;28;19963;-79
2022/06/03 14:02:42;;;;;;;;;;;24.30;54.90;;;;;;5031745;28;19960;-81
2022/06/03 14:05:14;;;;;;;;;;;24.30;55.00;;;;;;5040102;28;19920;-80
2022/06/03 14:07:41;;;;;;;;;;;24.30;55.00;;;;;;5031424;28;19921;-81
2022/06/03 14:10:11;;;;;;;;;;;24.40;55.50;;;;;;5040726;28;19909;-80
2022/06/03 14:12:40;;;;;;;;;;;24.30;54.70;;;;;;5034460;28;19989;-80
2022/06/03 14:15:09;;;;;;;;;;;24.30;54.90;;;;;;5030678;28;19957;-80
2022/06/03 14:17:46;;;;;;;;;;;24.40;54.60;;;;;;5039564;28;19915;-80
2022/06/03 14:20:35;;;;;;;;;;;24.50;54.90;;;;;;5043008;28;20426;-80
2022/06/03 14:23:00;;;;;;;;;;;24.50;54.30;;;;;;5020126;28;19914;-79
2022/06/03 14:25:29;;;;;;;;;;;24.70;54.20;;;;;;5030153;28;20019;-79
2022/06/03 14:28:06;;;;;;;;;;;24.60;54.40;;;;;;5031085;28;19913;-79
2022/06/03 14:30:45;;;;;;;;;;;24.70;54.10;;;;;;5030221;28;20448;-79
2022/06/03 14:33:11;;;;;;;;;;;24.70;54.20;;;;;;5012266;28;20004;-78
2022/06/03 14:35:39;;;;;;;;;;;24.70;54.30;;;;;;5029853;28;19909;-78
2022/06/03 14:38:04;;;;;;;;;;;24.60;54.00;;;;;;5030210;28;19952;-78
2022/06/03 14:40:31;;;;;;;;;;;24.70;54.20;;;;;;5030452;28;19909;-79
2022/06/03 14:42:59;;;;;;;;;;;24.70;54.20;;;;;;5032029;28;19909;-81
2022/06/03 14:45:27;;;;;;;;;;;24.60;54.60;;;;;;5014304;28;19913;-79
2022/06/03 14:47:56;;;;;;;;;;;24.60;54.00;;;;;;5030338;28;19918;-80
2022/06/03 14:50:23;;;;;;;;;;;24.50;54.00;;;;;;5030168;28;19910;-81
2022/06/03 14:52:52;;;;;;;;;;;24.50;54.20;;;;;;5035389;28;19920;-80
2022/06/03 14:55:30;;;;;;;;;;;24.40;54.00;;;;;;5015764;28;19910;-81
2022/06/03 14:58:10;;;;;;;;;;;24.40;54.30;;;;;;5016492;28;19913;-81
2022/06/03 15:00:36;;;;;;;;;;;24.30;54.40;;;;;;5034281;28;19909;-82
2022/06/03 15:03:04;;;;;;;;;;;24.50;54.80;;;;;;5034254;28;19913;-83
2022/06/03 15:05:41;;;;;;;;;;;24.20;54.30;;;;;;5016386;28;20380;-82
2022/06/03 15:08:14;;;;;;;;;;;24.10;54.30;;;;;;5015438;28;20389;-82
2022/06/03 15:10:43;;;;;;;;;;;24.20;54.20;;;;;;5016538;28;19971;-83
2022/06/03 15:13:20;;;;;;;;;;;24.10;54.30;;;;;;5016229;28;19929;-83
2022/06/03 15:15:48;;;;;;;;;;;24.10;54.30;;;;;;5034382;28;20281;-83
2022/06/03 15:18:15;;;;;;;;;;;24.20;54.40;;;;;;5033920;28;19909;-83
2022/06/03 15:20:42;;;;;;;;;;;24.00;54.10;;;;;;5016099;28;19939;-82
2022/06/03 15:23:08;;;;;;;;;;;24.10;53.90;;;;;;5016081;28;19912;-86